createdAt,value
2024-02-24T09:01:44.778Z,0.50
2024-02-24T09:02:22.318Z,0.50
2024-02-24T09:03:24.210Z,0.50
2024-02-24T09:04:22.224Z,0.50
2024-02-24T09:05:22.285Z,0.50
2024-02-24T09:06:22.323Z,0.50
2024-02-24T09:07:22.359Z,0.42
2024-02-24T09:08:22.256Z,0.34
2024-02-24T09:09:22.249Z,0.30
2024-02-24T09:10:22.261Z,0.27
2024-02-24T09:11:22.315Z,0.26
2024-02-24T09:12:22.337Z,0.26
2024-02-24T09:13:22.279Z,0.26
2024-02-24T09:14:22.274Z,0.27
2024-02-24T09:15:22.253Z,0.29
2024-02-24T09:16:22.277Z,0.31
2024-02-24T09:17:22.293Z,0.34
2024-02-24T09:18:22.351Z,0.37
2024-02-24T09:19:22.278Z,0.41
2024-02-24T09:20:22.319Z,0.46
2024-02-24T09:21:22.266Z,0.50
2024-02-24T09:22:22.323Z,0.50
2024-02-24T09:23:22.323Z,0.50
2024-02-24T09:24:22.321Z,0.50
2024-02-24T09:25:22.274Z,0.50
2024-02-24T09:26:22.308Z,0.50
2024-02-24T09:27:22.303Z,0.50
2024-02-24T09:28:22.299Z,0.50
2024-02-24T09:29:22.293Z,0.50
2024-02-24T09:30:22.281Z,0.50
2024-02-24T09:31:22.303Z,0.50
2024-02-24T09:32:22.318Z,0.51
2024-02-24T09:33:22.528Z,0.50
2024-02-24T09:34:22.433Z,0.51
2024-02-24T09:35:22.333Z,0.50
2024-02-24T09:36:22.336Z,0.50
2024-02-24T09:37:22.307Z,0.50
2024-02-24T09:38:22.298Z,0.51
2024-02-24T09:39:22.318Z,0.50
2024-02-24T09:40:22.322Z,0.51
2024-02-24T09:41:22.351Z,0.50
2024-02-24T09:42:22.301Z,0.50
2024-02-24T09:43:29.657Z,0.50
2024-02-24T09:44:29.697Z,0.50
2024-02-24T09:45:29.646Z,0.50
2024-02-24T09:46:29.695Z,0.50
2024-02-24T09:47:29.786Z,0.50
2024-02-24T09:48:29.747Z,0.50
2024-02-24T09:49:29.729Z,0.50
2024-02-24T09:50:29.692Z,0.50
2024-02-24T09:51:29.674Z,0.50
2024-02-24T09:52:29.836Z,0.51
2024-02-24T09:53:29.718Z,0.51
2024-02-24T09:54:29.682Z,0.51
2024-02-24T09:55:29.734Z,0.51
2024-02-24T09:56:29.678Z,0.50
2024-02-24T09:57:29.717Z,0.51
2024-02-24T09:58:29.669Z,0.50
2024-02-24T09:59:29.735Z,0.51
2024-02-24T10:00:29.705Z,0.50
2024-02-24T10:01:29.721Z,0.51
2024-02-24T10:02:29.746Z,0.51
2024-02-24T10:03:29.784Z,0.51
2024-02-24T10:04:29.704Z,0.51
2024-02-24T10:05:29.812Z,0.51
2024-02-24T10:06:29.738Z,0.50
2024-02-24T10:07:29.728Z,0.51
2024-02-24T10:08:29.745Z,0.50
2024-02-24T10:09:29.711Z,0.51
2024-02-24T10:10:29.824Z,0.52
2024-02-24T10:11:29.804Z,0.52
2024-02-24T10:12:29.726Z,0.50
2024-02-24T10:13:29.718Z,0.51
2024-02-24T10:14:29.752Z,0.51
2024-02-24T10:15:29.699Z,0.51
2024-02-24T10:16:29.708Z,0.50
2024-02-24T10:17:29.797Z,0.51
2024-02-24T10:24:47.308Z,0.50
2024-02-24T10:25:29.967Z,0.51
2024-02-24T10:26:29.981Z,0.54
2024-02-24T10:27:29.965Z,0.58
2024-02-24T10:28:29.978Z,0.62
2024-02-24T10:29:30.039Z,0.67
2024-02-24T10:30:30.034Z,0.66
2024-02-24T10:31:30.004Z,0.63
2024-02-24T10:32:30.085Z,0.60
2024-02-24T10:33:30.979Z,0.60
2024-02-24T10:34:30.215Z,0.58
2024-02-24T10:35:30.277Z,0.57
2024-02-24T10:36:30.091Z,0.55
2024-02-24T10:37:44.003Z,0.55
2024-02-24T10:38:37.023Z,0.55
2024-02-24T10:39:31.139Z,0.55
2024-02-24T10:40:30.111Z,0.54
2024-02-24T10:41:31.402Z,0.53
2024-02-24T10:42:30.124Z,0.53
2024-02-24T10:43:30.179Z,0.53
2024-02-24T10:44:30.229Z,0.52
2024-02-24T10:45:30.120Z,0.50
2024-02-24T10:46:30.119Z,0.51
2024-02-24T10:47:30.146Z,0.50
2024-02-24T10:48:30.395Z,0.51
2024-02-24T10:49:30.279Z,0.51
2024-02-24T10:50:30.168Z,0.51
2024-02-24T10:51:30.180Z,0.50
2024-02-24T10:52:30.104Z,0.51
2024-02-24T10:53:30.151Z,0.51
2024-02-24T10:54:30.151Z,0.50
2024-02-24T10:55:30.164Z,0.51
2024-02-24T10:56:30.175Z,0.50
2024-02-24T10:57:30.138Z,0.50
2024-02-24T10:58:30.141Z,0.51
2024-02-24T10:59:30.224Z,0.51
2024-02-24T11:00:30.169Z,0.52
2024-02-24T11:01:30.206Z,0.52
2024-02-24T11:02:30.194Z,0.50
2024-02-24T11:03:30.198Z,0.52
2024-02-24T11:04:30.360Z,0.50
2024-02-24T11:05:30.193Z,0.52
2024-02-24T11:06:31.862Z,0.52
2024-02-24T11:07:30.208Z,0.52
2024-02-24T11:08:30.222Z,0.52
2024-02-24T11:09:30.192Z,0.52
2024-02-24T11:10:30.156Z,0.51
2024-02-24T11:11:30.258Z,0.51
2024-02-24T11:12:31.511Z,0.51
2024-02-24T11:13:30.163Z,0.53
2024-02-24T11:14:30.184Z,0.52
2024-02-24T11:15:30.185Z,0.51
2024-02-24T11:16:30.229Z,0.51
2024-02-24T11:17:30.352Z,0.52
2024-02-24T11:18:33.202Z,0.50
2024-02-24T11:19:30.376Z,0.53
2024-02-24T11:20:30.462Z,0.52
2024-02-24T11:21:30.369Z,0.53
2024-02-24T11:22:30.362Z,0.52
2024-02-24T11:23:30.418Z,0.52
2024-02-24T11:24:30.401Z,0.51
2024-02-24T11:25:30.371Z,0.52
2024-02-24T11:26:30.435Z,0.53
2024-02-24T11:27:30.370Z,0.52
2024-02-24T11:28:30.409Z,0.53
2024-02-24T11:29:30.430Z,0.52
2024-02-24T11:30:30.385Z,0.52
2024-02-24T11:31:30.443Z,0.51
2024-02-24T11:32:30.490Z,0.52
2024-02-24T11:33:30.726Z,0.52
2024-02-24T11:34:30.459Z,0.52
2024-02-24T11:35:30.424Z,0.52
2024-02-24T11:36:30.389Z,0.52
2024-02-24T11:37:30.405Z,0.52
2024-02-24T11:38:30.414Z,0.53
2024-02-24T11:39:30.411Z,0.52
2024-02-24T11:40:30.411Z,0.52
2024-02-24T11:41:30.428Z,0.51
2024-02-24T11:42:30.426Z,0.51
2024-02-24T11:43:30.401Z,0.52
2024-02-24T11:44:30.435Z,0.52
2024-02-24T11:45:30.422Z,0.53
2024-02-24T11:46:30.443Z,0.52
2024-02-24T11:47:30.653Z,0.52
2024-02-24T11:48:30.672Z,0.51
2024-02-24T11:49:30.504Z,0.52
2024-02-24T11:50:30.414Z,0.53
2024-02-24T11:51:30.443Z,0.52
2024-02-24T11:52:30.447Z,0.52
2024-02-24T11:53:30.428Z,0.52
2024-02-24T11:54:30.460Z,0.51
2024-02-24T11:55:30.491Z,0.52
2024-02-24T11:56:30.535Z,0.52
2024-02-24T11:57:30.571Z,0.53
2024-02-24T11:58:30.647Z,0.52
2024-02-24T11:59:30.701Z,0.52
2024-02-24T12:00:30.693Z,0.51
2024-02-24T12:01:30.814Z,0.53
2024-02-24T12:02:30.789Z,0.52
2024-02-24T12:03:30.779Z,0.53
2024-02-24T12:04:30.959Z,0.51
2024-02-24T12:05:30.947Z,0.51
2024-02-24T12:06:30.918Z,0.52
2024-02-24T12:07:30.979Z,0.52
2024-02-24T12:08:31.016Z,0.52
2024-02-24T12:09:31.094Z,0.53
2024-02-24T12:10:31.135Z,0.52
2024-02-24T12:11:31.169Z,0.52
2024-02-24T12:12:31.154Z,0.52
2024-02-24T12:13:31.187Z,0.52
2024-02-24T12:14:31.262Z,0.52
2024-02-24T12:15:31.300Z,0.52
2024-02-24T12:16:31.318Z,0.51
2024-02-24T12:17:31.443Z,0.51
2024-02-24T12:18:31.608Z,0.52
2024-02-24T12:19:31.496Z,0.52
2024-02-24T12:20:31.489Z,0.52
2024-02-24T12:21:31.470Z,0.52
2024-02-24T12:22:31.499Z,0.53
2024-02-24T12:23:31.565Z,0.53
2024-02-24T12:24:31.534Z,0.53
2024-02-24T12:25:31.582Z,0.52
2024-02-24T12:26:31.633Z,0.52
2024-02-24T12:27:31.638Z,0.52
2024-02-24T12:28:31.647Z,0.52
2024-02-24T12:29:31.735Z,0.51
2024-02-24T12:30:31.692Z,0.52
2024-02-24T12:31:31.695Z,0.52
2024-02-24T12:32:31.790Z,0.52
2024-02-24T12:33:31.892Z,0.52
2024-02-24T12:34:31.817Z,0.52
2024-02-24T12:35:31.842Z,0.52
2024-02-24T12:36:31.841Z,0.52
2024-02-24T12:37:31.853Z,0.51
2024-02-24T12:38:31.941Z,0.51
2024-02-24T12:39:31.915Z,0.51
2024-02-24T12:40:31.888Z,0.52
2024-02-24T12:41:32.009Z,0.52
2024-02-24T12:42:31.959Z,0.51
2024-02-24T12:43:31.990Z,0.51
2024-02-24T12:44:32.087Z,0.52
2024-02-24T12:45:32.015Z,0.52
2024-02-24T12:46:32.049Z,0.52
2024-02-24T12:47:36.475Z,0.52
2024-02-24T12:48:32.218Z,0.52
2024-02-24T12:49:32.075Z,0.52
2024-02-24T12:50:32.074Z,0.51
2024-02-24T12:51:32.065Z,0.52
2024-02-24T12:52:32.073Z,0.52
2024-02-24T12:53:32.105Z,0.51
2024-02-24T12:54:32.086Z,0.51
2024-02-24T12:55:32.072Z,0.52
2024-02-24T12:56:32.102Z,0.52
2024-02-24T12:57:32.081Z,0.52
2024-02-24T12:58:32.064Z,0.52
2024-02-24T12:59:32.157Z,0.52
2024-02-24T13:00:32.164Z,0.52
2024-02-24T13:01:32.080Z,0.51
2024-02-24T13:02:32.129Z,0.52
2024-02-24T13:03:32.100Z,0.52
2024-02-24T13:04:32.074Z,0.52
2024-02-24T13:05:32.303Z,0.52
2024-02-24T13:06:32.267Z,0.51
2024-02-24T13:07:32.150Z,0.52
2024-02-24T13:08:32.367Z,0.52
2024-02-24T13:09:32.315Z,0.52
2024-02-24T13:10:32.444Z,0.52
2024-02-24T13:11:32.514Z,0.53
2024-02-24T13:12:32.544Z,0.53
2024-02-24T13:13:32.567Z,0.52
2024-02-24T13:14:32.662Z,0.53
2024-02-24T13:15:32.721Z,0.52
2024-02-24T13:16:32.744Z,0.51
2024-02-24T13:17:32.909Z,0.50
2024-02-24T13:18:33.135Z,0.53
2024-02-24T13:19:32.976Z,0.52
2024-02-24T13:20:33.042Z,0.53
2024-02-24T13:21:33.052Z,0.53
2024-02-24T13:22:33.109Z,0.52
2024-02-24T13:23:33.212Z,0.54
2024-02-24T13:24:33.221Z,0.53
2024-02-24T13:25:33.298Z,0.53
2024-02-24T13:26:33.359Z,0.53
2024-02-24T13:27:33.406Z,0.52
2024-02-24T13:28:33.430Z,0.53
2024-02-24T13:29:33.549Z,0.52
2024-02-24T13:30:33.524Z,0.51
2024-02-24T13:31:33.592Z,0.52
2024-02-24T13:32:33.828Z,0.52
2024-02-24T13:33:34.128Z,0.53
2024-02-24T13:34:33.818Z,0.52
2024-02-24T13:35:34.017Z,0.53
2024-02-24T13:36:33.885Z,0.52
2024-02-24T13:37:33.941Z,0.52
2024-02-24T13:38:33.995Z,0.54
2024-02-24T13:39:34.037Z,0.54
2024-02-24T13:40:34.112Z,0.54
2024-02-24T13:41:34.319Z,0.54
2024-02-24T13:42:34.210Z,0.54
2024-02-24T13:43:34.296Z,0.54
2024-02-24T13:44:34.411Z,0.54
2024-02-24T13:45:34.373Z,0.55
2024-02-24T13:46:34.408Z,0.53
2024-02-24T13:47:34.658Z,0.55
2024-02-24T13:48:34.728Z,0.53
2024-02-24T13:49:34.655Z,0.56
2024-02-24T13:50:34.644Z,0.55
2024-02-24T13:51:34.668Z,0.57
2024-02-24T13:52:34.719Z,0.53
2024-02-24T13:53:34.804Z,0.54
2024-02-24T13:54:34.805Z,0.58
2024-02-24T13:55:34.869Z,0.54
2024-02-24T13:56:34.926Z,0.57
2024-02-24T13:57:34.970Z,0.57
2024-02-24T13:58:35.022Z,0.58
2024-02-24T13:59:35.074Z,0.59
2024-02-24T14:00:35.214Z,0.59
